Pinoso, Spain
Current Conditions -  °F | °C
As of 11:30 AM on Thursday 27 Nov 2014 (Local Time) from LEAL Reporting Station
Broken Clouds Broken Clouds  
Wind Chill: 63°   Ceiling: 2500
Heat Index: 63°   Visibility: 6mi
Dew Point: 57°   Wind: 8mph
Humidity: 82%   Direction: 30°NNE
Pressure: 29.68"   Gusts: NA
Location:  38.42°N, 1.03°W
Report Text: LEAL 271030Z 03007KT 350V070 9999 SCT015 BKN025 BKN050 17/14 Q1005 NOSIG
Loading
Personal Weather Stations






























Interactive Weather Map New forecast layout! Learn more

10-Day Weather Forecast

Advertisements
Track Severe Weather on mobile